createdAt,value
2023-02-12T00:03:58.277Z,-1.30
2023-02-12T00:10:00.723Z,-1.30
2023-02-12T00:16:09.985Z,-1.30
2023-02-12T00:22:12.198Z,-1.30
2023-02-12T00:28:14.727Z,-1.30
2023-02-12T00:34:16.904Z,-1.30
2023-02-12T00:40:19.255Z,-1.30
2023-02-12T00:46:21.978Z,-1.20
2023-02-12T00:52:24.686Z,-1.30
2023-02-12T00:58:27.361Z,-1.30
2023-02-12T01:04:29.504Z,-1.20
2023-02-12T01:10:32.013Z,-1.20
2023-02-12T01:16:36.928Z,-1.20
2023-02-12T01:22:39.677Z,-1.20
2023-02-12T01:28:44.189Z,-1.30
2023-02-12T01:34:46.551Z,-1.40
2023-02-12T01:40:49.310Z,-1.40
2023-02-12T01:46:59.980Z,-1.20
2023-02-12T01:53:02.289Z,-1.10
2023-02-12T01:59:04.317Z,-1.00
2023-02-12T02:05:07.757Z,-1.10
2023-02-12T02:11:28.991Z,-1.00
2023-02-12T02:17:47.457Z,-1.00
2023-02-12T02:24:01.556Z,-0.90
2023-02-12T02:30:45.723Z,-1.00
2023-02-12T02:37:00.793Z,-0.90
2023-02-12T02:43:09.925Z,-0.90
2023-02-12T02:49:27.424Z,-0.80
2023-02-12T02:55:37.392Z,-0.80
2023-02-12T03:02:05.893Z,-0.80
2023-02-12T03:08:15.245Z,-0.70
2023-02-12T03:14:26.947Z,-0.60
2023-02-12T03:20:33.837Z,-0.70
2023-02-12T03:26:46.335Z,-0.70
2023-02-12T03:33:09.431Z,-0.70
2023-02-12T03:39:20.683Z,-0.70
2023-02-12T03:45:52.635Z,-0.80
2023-02-12T03:51:55.474Z,-0.70
2023-02-12T03:58:01.957Z,-0.70
2023-02-12T04:04:07.430Z,-0.70
2023-02-12T04:10:10.236Z,-0.70
2023-02-12T04:16:29.518Z,-0.70
2023-02-12T04:23:03.454Z,-0.70
2023-02-12T04:29:18.770Z,-0.60
2023-02-12T04:35:59.830Z,-0.60
2023-02-12T04:42:02.817Z,-0.80
2023-02-12T04:48:06.652Z,-0.90
2023-02-12T04:54:08.822Z,-0.90
2023-02-12T05:00:13.772Z,-0.90
2023-02-12T05:06:15.980Z,-0.90
2023-02-12T05:12:20.725Z,-0.90
2023-02-12T05:18:23.125Z,-0.80
2023-02-12T05:24:26.064Z,-0.70
2023-02-12T05:30:28.533Z,-0.50
2023-02-12T05:36:30.813Z,-0.40
2023-02-12T05:42:33.227Z,-0.30
2023-02-12T05:48:35.695Z,-0.20
2023-02-12T05:54:37.967Z,0.00
2023-02-12T06:00:40.498Z,0.10
2023-02-12T06:06:42.990Z,0.30
2023-02-12T06:12:44.954Z,0.50
2023-02-12T06:18:47.592Z,0.70
2023-02-12T06:24:49.950Z,0.80
2023-02-12T06:30:52.704Z,1.10
2023-02-12T06:36:55.293Z,1.40
2023-02-12T06:42:57.776Z,1.60
2023-02-12T06:49:00.648Z,1.90
2023-02-12T06:55:02.968Z,2.10
2023-02-12T07:01:14.105Z,2.20
2023-02-12T07:07:16.470Z,2.40
2023-02-12T07:13:18.610Z,2.70
2023-02-12T07:19:21.185Z,2.80
2023-02-12T07:25:23.287Z,2.90
2023-02-12T07:31:26.224Z,3.10
2023-02-12T07:37:28.834Z,3.40
2023-02-12T07:43:31.143Z,3.40
2023-02-12T07:49:33.493Z,3.60
2023-02-12T07:55:35.888Z,3.70
2023-02-12T08:01:41.391Z,3.80
2023-02-12T08:07:43.873Z,4.00
2023-02-12T08:13:46.458Z,4.40
2023-02-12T08:19:48.579Z,4.90
2023-02-12T08:25:50.748Z,5.20
2023-02-12T08:32:04.152Z,5.20
2023-02-12T08:38:06.458Z,5.30
2023-02-12T08:44:09.445Z,5.40
2023-02-12T08:50:12.005Z,5.70
2023-02-12T08:56:17.154Z,6.00
2023-02-12T09:02:19.226Z,5.90
2023-02-12T09:08:21.545Z,5.80
2023-02-12T09:14:24.878Z,5.60
2023-02-12T09:20:27.368Z,5.70
2023-02-12T09:26:29.627Z,5.70
2023-02-12T09:32:31.647Z,5.70
2023-02-12T09:38:34.687Z,5.80
2023-02-12T09:44:50.912Z,6.20
2023-02-12T09:50:55.712Z,6.40
2023-02-12T09:57:02.170Z,6.80
2023-02-12T10:03:11.788Z,6.70
2023-02-12T10:09:48.588Z,6.60
2023-02-12T10:16:05.977Z,6.70
2023-02-12T10:22:31.170Z,6.70
2023-02-12T10:28:40.047Z,6.50
2023-02-12T10:34:43.256Z,6.50
2023-02-12T10:40:46.161Z,7.10
2023-02-12T10:46:48.561Z,7.70
2023-02-12T10:52:56.154Z,7.70
2023-02-12T10:59:00.511Z,8.00
2023-02-12T11:05:24.554Z,8.20
2023-02-12T11:11:31.770Z,7.80
2023-02-12T11:17:38.773Z,7.50
2023-02-12T11:23:43.668Z,7.30
2023-02-12T11:29:49.986Z,7.10
2023-02-12T11:35:58.068Z,7.10
2023-02-12T11:42:06.646Z,7.10
2023-02-12T11:48:22.970Z,7.10
2023-02-12T11:54:28.845Z,7.10
2023-02-12T12:00:39.117Z,7.10
2023-02-12T12:06:52.706Z,7.30
2023-02-12T12:13:02.989Z,7.80
2023-02-12T12:19:34.965Z,8.70
2023-02-12T12:25:45.383Z,10.50
2023-02-12T12:31:59.789Z,9.60
2023-02-12T12:38:22.600Z,9.70
2023-02-12T12:44:49.936Z,10.10
2023-02-12T12:51:16.297Z,9.80
2023-02-12T12:57:47.152Z,10.70
2023-02-12T13:04:11.272Z,9.90
2023-02-12T13:10:16.167Z,9.90
2023-02-12T13:16:35.752Z,10.10
2023-02-12T13:22:58.661Z,10.20
2023-02-12T13:29:13.605Z,9.80
2023-02-12T13:35:23.852Z,9.00
2023-02-12T13:41:27.688Z,8.70
2023-02-12T13:47:38.959Z,8.50
2023-02-12T13:53:50.967Z,8.20
2023-02-12T13:59:54.505Z,8.20
2023-02-12T14:06:17.485Z,8.00
2023-02-12T14:12:26.110Z,7.70
2023-02-12T14:18:32.980Z,7.50
2023-02-12T14:24:56.196Z,7.50
2023-02-12T14:31:20.553Z,7.20
2023-02-12T14:37:37.784Z,7.00
2023-02-12T14:43:58.982Z,6.90
2023-02-12T14:50:19.111Z,6.70
2023-02-12T14:56:23.588Z,6.50
2023-02-12T15:02:28.600Z,6.30
2023-02-12T15:08:45.845Z,6.10
2023-02-12T15:14:55.531Z,5.90
2023-02-12T15:21:14.397Z,5.80
2023-02-12T15:27:17.685Z,5.60
2023-02-12T15:33:27.239Z,5.40
2023-02-12T15:39:44.232Z,5.30
2023-02-12T15:45:52.361Z,5.20
2023-02-12T15:51:55.453Z,5.00
2023-02-12T15:58:02.118Z,4.80
2023-02-12T16:04:06.992Z,4.70
2023-02-12T16:10:18.597Z,4.50
2023-02-12T16:16:24.535Z,4.30
2023-02-12T16:22:40.991Z,4.20
2023-02-12T16:28:48.622Z,4.10
2023-02-12T16:34:59.682Z,4.00
2023-02-12T16:41:35.018Z,3.90
2023-02-12T16:47:37.265Z,3.90
2023-02-12T16:53:44.141Z,3.90
2023-02-12T16:59:46.564Z,3.80
2023-02-12T17:05:49.780Z,3.60
2023-02-12T17:11:52.133Z,3.50
2023-02-12T17:17:54.440Z,3.40
2023-02-12T17:23:57.129Z,3.30
2023-02-12T17:29:59.484Z,3.30
2023-02-12T17:36:02.072Z,3.10
2023-02-12T17:42:05.667Z,2.90
2023-02-12T17:48:08.129Z,2.90
2023-02-12T17:54:10.455Z,2.80
2023-02-12T18:00:13.817Z,2.50
2023-02-12T18:06:25.660Z,2.30
2023-02-12T18:12:28.081Z,2.20
2023-02-12T18:18:30.389Z,2.10
2023-02-12T18:24:34.755Z,2.00
2023-02-12T18:30:39.538Z,2.00
2023-02-12T18:36:41.739Z,1.90
2023-02-12T18:42:43.927Z,1.80
2023-02-12T18:48:46.270Z,1.80
2023-02-12T18:54:48.366Z,1.80
2023-02-12T19:00:50.557Z,1.80
2023-02-12T19:06:54.536Z,1.80
2023-02-12T19:12:57.253Z,1.70
2023-02-12T19:19:01.572Z,1.60
2023-02-12T19:25:04.656Z,1.60
2023-02-12T19:31:15.629Z,1.40
2023-02-12T19:37:18.102Z,1.40
2023-02-12T19:43:20.416Z,1.40
2023-02-12T19:49:24.427Z,1.30
2023-02-12T19:55:26.579Z,1.30
2023-02-12T20:01:29.374Z,1.20
2023-02-12T20:07:31.622Z,1.10
2023-02-12T20:13:34.370Z,1.10
2023-02-12T20:19:36.647Z,1.00
2023-02-12T20:25:45.437Z,0.90
2023-02-12T20:31:48.270Z,0.90
2023-02-12T20:37:50.679Z,0.80
2023-02-12T20:43:53.068Z,0.70
2023-02-12T20:49:56.175Z,0.70
2023-02-12T20:56:04.807Z,0.70
2023-02-12T21:02:08.244Z,0.50
2023-02-12T21:08:10.723Z,0.50
2023-02-12T21:14:23.909Z,0.50
2023-02-12T21:20:26.200Z,0.60
2023-02-12T21:26:30.396Z,0.60
2023-02-12T21:32:32.761Z,0.70
2023-02-12T21:38:35.467Z,0.70
2023-02-12T21:44:37.968Z,0.70
2023-02-12T21:50:39.942Z,0.70
2023-02-12T21:56:43.954Z,0.60
2023-02-12T22:02:46.250Z,0.70
2023-02-12T22:08:49.783Z,0.60
2023-02-12T22:14:52.101Z,0.50
2023-02-12T22:20:59.909Z,0.50
2023-02-12T22:27:02.057Z,0.40
2023-02-12T22:33:04.159Z,0.40
2023-02-12T22:39:06.888Z,0.30
2023-02-12T22:45:09.621Z,0.40
2023-02-12T22:51:15.361Z,0.40
2023-02-12T22:57:18.052Z,0.30
2023-02-12T23:03:20.242Z,0.30
2023-02-12T23:09:22.384Z,0.20
2023-02-12T23:15:24.627Z,0.00
2023-02-12T23:21:28.261Z,0.10
2023-02-12T23:27:30.410Z,0.00
2023-02-12T23:33:32.571Z,-0.10
2023-02-12T23:39:34.785Z,-0.30
2023-02-12T23:45:37.231Z,-0.20
2023-02-12T23:51:39.779Z,-0.40
2023-02-12T23:57:41.916Z,-0.30
